Prunedale, California
Current Conditions -  °F | °C
As of 4:53 PM on Friday 24 Oct 2014 (Local Time) from KSNS Reporting Station
Overcast Overcast  
Wind Chill: 64°   Ceiling: 1500
Heat Index: 64°   Visibility: 10mi
Dew Point: 56°   Wind: 13mph
Humidity: 75%   Direction: 300°WNW
Pressure: 29.93"   Gusts: NA
Location:  36.7756°N, 121.661°W
Report Text: KSNS 242353Z 30011KT 10SM OVC015 18/13 A2993 RMK AO2 SLP143 T01780133 10211 20172 55000
Loading
Personal Weather Stations






























Interactive Weather Map
Tropical Storm Tracking
New forecast layout! Learn more

10-Day Weather Forecast

Advertisements
Track Severe Weather on mobile